MET'MAP v2.0
soon released !

Expected late october,
this new version will be
more efficient, smarter,
and hosted on a brand new
server x3 powerfull...
...and still free !


Not compatible ?
Try the mobile version !

LOG IN : | Subscribe | Disclaimer | Who is Orbifly ? |
ICAO code :

TAF - LEXJ Santander Cantabria - 27 Sep 2020 00:18 UTC
Data Sources :     NOAA   


- Airport Elevation : 16 ft
- IATA code : SDR
- No reported NOTAMs.


LEXJ - Santander Cantabria

Latest METAR recorded : 2015/08/11 08:00 LEXJ 110800Z VRB02KT 9000 OVC017 21/18 Q1012
TAF AMD TAF LEXJ
Valid from the 26 at 21:00 until the 27 at 21:00 UTC


262102Z 2621/2721 01012KT 9999 SCT015 BKN020 TX17/2713Z TN12/2707Z
PROB40
TEMPO 2621/2624 03015G25KT 3000 RA -SHRA BKN010 SCT030TCU
BECMG 2701/2703 VRB06KT
TEMPO 2710/2716 29012G22KT FEW040TCU

Source NOAA


MET'MAP, your aeronautical weather chart ! - Copyright ORBIFLY December 2007

Programming & Development : Alexandra Zaïnal
Co-Developer : Marc-Olivier Méhu
Technical & hardware support : Manuel Goepfert
Concept & Financing : Baudouin d'Aumeries